Time;durP1;ratioP1;P1;durP2;ratioP2;P2;SDS_P1;SDS_P2;PMS_P1;PMS_P2;Temp;Humidity;BMP_temperature;BMP_pressure;BME280_temperature;BME280_humidity;BME280_pressure;Samples;Min_cycle;Max_cycle;Signal;HPM_P1;HPM_P2
2023/12/17 00:02:03;;;;;;;59.70;26.50;;;0.10;99.90;;;;;;5048927;28;20029;-66
2023/12/17 00:04:28;;;;;;;54.33;23.95;;;0.10;99.90;;;;;;5049687;28;20124;-66
2023/12/17 00:06:54;;;;;;;44.95;21.58;;;0.10;99.90;;;;;;5047727;28;20029;-66
2023/12/17 00:09:19;;;;;;;52.88;23.63;;;0.20;99.90;;;;;;5047985;28;20041;-66
2023/12/17 00:11:45;;;;;;;42.85;23.42;;;0.20;99.90;;;;;;5047137;28;20572;-66
2023/12/17 00:14:13;;;;;;;50.28;24.65;;;0.20;99.90;;;;;;5050404;28;20043;-65
2023/12/17 00:16:40;;;;;;;44.83;22.77;;;0.30;99.90;;;;;;5048745;28;20382;-66
2023/12/17 00:19:05;;;;;;;48.72;22.00;;;0.20;99.90;;;;;;5042108;28;20036;-65
2023/12/17 00:21:32;;;;;;;43.28;21.73;;;0.10;99.90;;;;;;5049523;28;20025;-66
2023/12/17 00:23:58;;;;;;;45.53;23.00;;;0.10;99.90;;;;;;5049033;28;20224;-65
2023/12/17 00:26:23;;;;;;;51.33;23.35;;;0.10;99.90;;;;;;5049485;28;20536;-67
2023/12/17 00:28:49;;;;;;;45.03;23.92;;;0.10;99.90;;;;;;5056029;28;20116;-65
2023/12/17 00:31:15;;;;;;;53.65;24.55;;;0.10;99.90;;;;;;5038610;28;20049;-66
2023/12/17 00:33:40;;;;;;;48.22;24.48;;;0.00;99.90;;;;;;5040505;28;20025;-66
2023/12/17 00:36:06;;;;;;;46.60;24.75;;;0.00;99.90;;;;;;5039165;28;20025;-66
2023/12/17 00:38:32;;;;;;;55.45;24.70;;;-0.10;99.90;;;;;;5041832;28;20033;-66
2023/12/17 00:40:57;;;;;;;46.03;21.95;;;-0.10;99.90;;;;;;5040309;28;20020;-68
2023/12/17 00:43:23;;;;;;;44.00;20.50;;;0.00;99.90;;;;;;5042424;28;20425;-66
2023/12/17 00:45:48;;;;;;;39.80;18.88;;;-0.10;99.90;;;;;;5044049;28;20480;-66
2023/12/17 00:48:14;;;;;;;42.80;20.85;;;0.00;99.90;;;;;;5042647;28;20028;-65
2023/12/17 00:50:40;;;;;;;43.58;19.88;;;0.00;99.90;;;;;;5043617;28;20033;-65
2023/12/17 00:53:05;;;;;;;38.67;19.42;;;-0.10;99.90;;;;;;5043184;28;20061;-66
2023/12/17 00:55:31;;;;;;;47.10;21.50;;;0.00;99.90;;;;;;5042711;28;20359;-65
2023/12/17 00:57:57;;;;;;;37.50;18.00;;;0.00;99.90;;;;;;5044879;28;20020;-65
2023/12/17 01:00:22;;;;;;;33.50;17.33;;;0.10;99.90;;;;;;5043728;28;20041;-65
2023/12/17 01:02:48;;;;;;;33.47;15.35;;;0.10;99.90;;;;;;5026142;28;20033;-65
2023/12/17 01:05:13;;;;;;;32.25;14.43;;;0.10;99.90;;;;;;5046180;28;20027;-65
2023/12/17 01:07:39;;;;;;;31.60;13.80;;;0.20;99.90;;;;;;5041661;28;20029;-65
2023/12/17 01:10:05;;;;;;;30.60;15.63;;;0.20;99.90;;;;;;5043113;28;20063;-64
2023/12/17 01:12:31;;;;;;;32.72;16.42;;;0.20;99.90;;;;;;5045417;28;20040;-66
2023/12/17 01:14:56;;;;;;;41.50;17.60;;;0.20;99.90;;;;;;5043668;28;20025;-66
2023/12/17 01:17:22;;;;;;;43.03;19.23;;;0.20;99.90;;;;;;5043072;28;20033;-66
2023/12/17 01:19:47;;;;;;;36.92;18.42;;;0.20;99.90;;;;;;5043240;28;20387;-66
2023/12/17 01:22:13;;;;;;;37.60;19.27;;;0.20;99.90;;;;;;5042945;28;20108;-66
2023/12/17 01:24:41;;;;;;;40.25;19.20;;;0.10;99.90;;;;;;5052247;28;20025;-66
2023/12/17 01:27:07;;;;;;;35.85;18.77;;;0.00;99.90;;;;;;5052624;28;20014;-66
2023/12/17 01:29:32;;;;;;;33.95;15.98;;;0.00;99.90;;;;;;5052954;28;20032;-66
2023/12/17 01:31:58;;;;;;;40.40;17.92;;;-0.10;99.90;;;;;;5050552;28;20652;-66
2023/12/17 01:34:24;;;;;;;35.80;17.67;;;-0.10;99.90;;;;;;5052663;28;20067;-66
2023/12/17 01:36:50;;;;;;;33.13;16.83;;;-0.20;99.90;;;;;;5051648;28;20025;-66
2023/12/17 01:39:16;;;;;;;31.10;16.13;;;-0.20;99.90;;;;;;5052741;28;20112;-66
2023/12/17 01:41:42;;;;;;;28.52;15.95;;;-0.30;99.90;;;;;;5049817;28;20113;-66
2023/12/17 01:44:08;;;;;;;34.63;15.90;;;-0.30;99.90;;;;;;5052756;28;20367;-65
2023/12/17 01:46:33;;;;;;;33.85;16.55;;;-0.40;99.90;;;;;;5052220;28;20025;-65
2023/12/17 01:48:59;;;;;;;32.50;16.75;;;-0.40;99.90;;;;;;5051780;28;20803;-65
2023/12/17 01:51:26;;;;;;;30.30;14.25;;;-0.40;99.90;;;;;;5051803;28;20039;-66
2023/12/17 01:53:52;;;;;;;33.58;14.65;;;-0.40;99.90;;;;;;5049269;28;20033;-66
2023/12/17 01:56:18;;;;;;;23.65;13.50;;;-0.40;99.90;;;;;;5051607;28;20028;-66
2023/12/17 01:58:44;;;;;;;30.63;14.63;;;-0.40;99.90;;;;;;5051922;28;20021;-66
2023/12/17 02:01:10;;;;;;;34.15;14.80;;;-0.40;99.90;;;;;;5051656;28;20032;-66
2023/12/17 02:03:36;;;;;;;30.42;13.77;;;-0.40;99.90;;;;;;5051675;28;20040;-66
2023/12/17 02:06:01;;;;;;;25.50;12.35;;;-0.40;99.90;;;;;;5051210;28;20488;-65
2023/12/17 02:08:27;;;;;;;29.83;13.13;;;-0.40;99.90;;;;;;5051682;28;20079;-65
2023/12/17 02:10:53;;;;;;;28.05;12.68;;;-0.40;99.90;;;;;;5051426;28;20028;-65
2023/12/17 02:13:19;;;;;;;29.30;13.73;;;-0.50;99.90;;;;;;5051048;28;20028;-65
2023/12/17 02:15:45;;;;;;;25.23;13.68;;;-0.50;99.90;;;;;;5051572;28;20476;-65
2023/12/17 02:18:10;;;;;;;32.55;14.32;;;-0.50;99.90;;;;;;5044132;28;20028;-65
2023/12/17 02:20:36;;;;;;;36.90;15.48;;;-0.50;99.90;;;;;;5051776;28;20092;-65
2023/12/17 02:23:05;;;;;;;29.15;13.90;;;-0.60;99.90;;;;;;5049598;28;20064;-65
2023/12/17 02:25:31;;;;;;;29.60;13.30;;;-0.60;99.90;;;;;;5052008;28;20103;-66
2023/12/17 02:27:57;;;;;;;30.42;13.95;;;-0.50;99.90;;;;;;5043955;28;20034;-65
2023/12/17 02:30:23;;;;;;;37.20;15.95;;;-0.50;99.90;;;;;;5055591;28;20052;-65
2023/12/17 02:32:50;;;;;;;33.05;16.88;;;-0.50;99.90;;;;;;5050617;28;20052;-66
2023/12/17 02:35:16;;;;;;;32.95;14.77;;;-0.40;99.90;;;;;;5052109;28;20104;-65
2023/12/17 02:37:41;;;;;;;29.75;14.07;;;-0.40;99.90;;;;;;5050347;28;20112;-66
2023/12/17 02:40:07;;;;;;;32.95;14.75;;;-0.50;99.90;;;;;;5050417;28;20035;-65
2023/12/17 02:42:33;;;;;;;30.25;14.10;;;-0.40;99.90;;;;;;5034919;28;20032;-65
2023/12/17 02:44:59;;;;;;;31.23;14.07;;;-0.40;99.90;;;;;;5051157;28;20017;-65
2023/12/17 02:47:24;;;;;;;30.88;12.93;;;-0.40;99.90;;;;;;5051260;28;20032;-65
2023/12/17 02:49:50;;;;;;;23.55;12.63;;;-0.40;99.90;;;;;;5058447;28;20113;-65
2023/12/17 02:52:15;;;;;;;24.48;12.13;;;-0.40;99.90;;;;;;5052760;28;20032;-65
2023/12/17 02:54:42;;;;;;;27.23;13.15;;;-0.50;99.90;;;;;;5050685;28;20033;-65
2023/12/17 02:57:08;;;;;;;27.17;14.18;;;-0.60;99.90;;;;;;5050577;28;20107;-65
2023/12/17 02:59:34;;;;;;;25.60;14.60;;;-0.60;99.90;;;;;;5050517;28;20068;-65
2023/12/17 03:01:59;;;;;;;34.22;14.98;;;-0.60;99.90;;;;;;5048719;28;20027;-65
2023/12/17 03:04:25;;;;;;;36.83;15.32;;;-0.60;99.90;;;;;;5050987;28;20032;-65
2023/12/17 03:06:50;;;;;;;36.90;17.02;;;-0.60;99.90;;;;;;5049631;28;20021;-65
2023/12/17 03:09:16;;;;;;;29.33;14.05;;;-0.50;99.90;;;;;;5051751;28;20465;-65
2023/12/17 03:11:41;;;;;;;28.33;14.25;;;-0.50;99.90;;;;;;5055878;28;20033;-65
2023/12/17 03:14:07;;;;;;;30.52;13.35;;;-0.50;99.90;;;;;;5050556;28;20397;-65
2023/12/17 03:16:33;;;;;;;26.70;13.35;;;-0.50;99.90;;;;;;5050806;28;20024;-65
2023/12/17 03:18:59;;;;;;;29.65;13.40;;;-0.60;99.90;;;;;;5041991;28;20017;-65
2023/12/17 03:21:26;;;;;;;31.30;16.65;;;-0.70;99.90;;;;;;5050525;28;20067;-65
2023/12/17 03:23:53;;;;;;;37.67;18.40;;;-0.70;99.90;;;;;;5049779;28;20441;-65
2023/12/17 03:26:18;;;;;;;34.08;17.77;;;-0.70;99.90;;;;;;5050143;28;20025;-65
2023/12/17 03:28:44;;;;;;;32.40;17.23;;;-0.80;99.90;;;;;;5050698;28;20025;-65
2023/12/17 03:31:16;;;;;;;36.13;18.17;;;-0.80;99.90;;;;;;5048823;28;20045;-65
2023/12/17 03:33:43;;;;;;;37.03;19.20;;;-0.90;99.90;;;;;;5055642;28;20051;-65
2023/12/17 03:36:14;;;;;;;34.97;17.95;;;-0.90;99.90;;;;;;5049895;28;20087;-65
2023/12/17 03:38:40;;;;;;;42.40;19.20;;;-0.90;99.90;;;;;;5049862;28;20032;-65
2023/12/17 03:41:06;;;;;;;40.00;20.35;;;-0.80;99.90;;;;;;5054936;28;20028;-65
2023/12/17 03:43:31;;;;;;;41.80;19.50;;;-0.80;99.90;;;;;;5050496;28;20474;-65
2023/12/17 03:45:57;;;;;;;39.58;21.60;;;-0.70;99.90;;;;;;5049660;28;20017;-65
2023/12/17 03:48:22;;;;;;;43.42;21.35;;;-0.70;99.90;;;;;;5049676;28;20036;-65
2023/12/17 03:50:48;;;;;;;38.50;18.80;;;-0.70;99.90;;;;;;5048922;28;20466;-65
2023/12/17 03:53:13;;;;;;;37.67;19.23;;;-0.70;99.90;;;;;;5049826;28;20037;-65
2023/12/17 03:55:39;;;;;;;36.90;18.23;;;-0.60;99.90;;;;;;5049864;28;20036;-66
2023/12/17 03:58:05;;;;;;;32.13;17.67;;;-0.70;99.90;;;;;;5049450;28;20511;-66
2023/12/17 04:00:30;;;;;;;36.72;18.65;;;-0.70;99.90;;;;;;5050631;28;20017;-65
2023/12/17 04:02:56;;;;;;;32.20;16.40;;;-0.70;99.90;;;;;;5046774;28;20609;-65
2023/12/17 04:05:27;;;;;;;34.20;17.13;;;-0.80;99.90;;;;;;5050763;28;20046;-65
2023/12/17 04:07:52;;;;;;;29.48;16.25;;;-0.80;99.90;;;;;;5049365;28;20470;-65
2023/12/17 04:10:18;;;;;;;32.58;16.05;;;-0.90;99.90;;;;;;5032514;28;20029;-65
2023/12/17 04:12:43;;;;;;;27.80;15.75;;;-0.90;99.90;;;;;;5048534;28;20033;-65
2023/12/17 04:15:09;;;;;;;32.63;17.23;;;-1.00;99.90;;;;;;5050557;28;20466;-65
2023/12/17 04:17:35;;;;;;;35.17;16.35;;;-1.00;99.90;;;;;;5030409;28;20025;-65
2023/12/17 04:20:00;;;;;;;30.55;17.55;;;-1.00;99.90;;;;;;5049347;28;20061;-64
2023/12/17 04:22:26;;;;;;;31.23;17.33;;;-1.00;99.90;;;;;;5052110;28;20028;-64
2023/12/17 04:24:51;;;;;;;33.45;15.57;;;-1.10;99.90;;;;;;5054005;28;20126;-65
2023/12/17 04:27:17;;;;;;;29.38;15.18;;;-1.10;99.90;;;;;;5057160;28;20023;-65
2023/12/17 04:29:43;;;;;;;29.77;16.75;;;-1.10;99.90;;;;;;5058199;28;20029;-65
2023/12/17 04:32:08;;;;;;;30.50;17.45;;;-1.10;99.90;;;;;;5057283;28;20063;-65
2023/12/17 04:34:34;;;;;;;32.05;18.52;;;-1.20;99.90;;;;;;5055282;28;20100;-65
2023/12/17 04:36:59;;;;;;;29.95;17.40;;;-1.20;99.90;;;;;;5052390;28;20061;-65
2023/12/17 04:39:26;;;;;;;30.33;17.90;;;-1.20;99.90;;;;;;5053322;28;20025;-65
2023/12/17 04:41:52;;;;;;;32.58;17.55;;;-1.20;99.90;;;;;;5052599;28;20111;-65
2023/12/17 04:44:17;;;;;;;35.13;18.30;;;-1.20;99.90;;;;;;5035831;28;20041;-65
2023/12/17 04:46:43;;;;;;;31.83;18.38;;;-1.10;99.90;;;;;;5052890;28;20146;-65
2023/12/17 04:49:09;;;;;;;34.78;18.67;;;-1.10;99.90;;;;;;5053714;28;20036;-65
2023/12/17 04:51:34;;;;;;;32.67;17.95;;;-1.10;99.90;;;;;;5053348;28;20025;-65
2023/12/17 04:54:00;;;;;;;30.67;17.70;;;-1.10;99.90;;;;;;5052742;28;20128;-65
2023/12/17 04:56:25;;;;;;;33.10;17.52;;;-1.10;99.90;;;;;;5034840;28;20029;-65
2023/12/17 04:58:51;;;;;;;36.55;17.80;;;-1.10;99.90;;;;;;5034594;28;20033;-65
2023/12/17 05:01:17;;;;;;;31.50;17.65;;;-1.10;99.90;;;;;;5052452;28;20025;-65
2023/12/17 05:03:42;;;;;;;30.15;17.13;;;-1.20;99.90;;;;;;5052591;28;20037;-65
2023/12/17 05:06:09;;;;;;;34.28;17.55;;;-1.20;99.90;;;;;;5052671;28;20458;-65
2023/12/17 05:08:34;;;;;;;31.35;17.27;;;-1.20;99.90;;;;;;5053775;28;20028;-65
2023/12/17 05:11:00;;;;;;;29.70;16.98;;;-1.20;99.90;;;;;;5051685;28;20017;-65
2023/12/17 05:13:25;;;;;;;33.17;18.05;;;-1.20;99.90;;;;;;5052510;28;20433;-65
2023/12/17 05:15:52;;;;;;;33.78;16.58;;;-1.30;99.90;;;;;;5052609;28;20109;-65
2023/12/17 05:18:18;;;;;;;34.88;18.20;;;-1.30;99.90;;;;;;5045085;28;20017;-65
2023/12/17 05:20:45;;;;;;;33.72;17.85;;;-1.20;99.90;;;;;;5054993;28;20027;-65
2023/12/17 05:23:12;;;;;;;38.90;18.90;;;-1.10;99.90;;;;;;5052590;28;20478;-65
2023/12/17 05:25:42;;;;;;;33.70;20.08;;;-1.10;99.90;;;;;;5052751;28;20040;-65
2023/12/17 05:28:09;;;;;;;35.00;18.93;;;-1.10;99.90;;;;;;5052386;28;20029;-65
2023/12/17 05:30:38;;;;;;;39.13;20.10;;;-1.10;99.90;;;;;;5051471;28;20844;-65
2023/12/17 05:33:03;;;;;;;35.35;19.10;;;-1.10;99.90;;;;;;5052426;28;20077;-65
2023/12/17 05:35:29;;;;;;;41.25;19.88;;;-1.20;99.90;;;;;;5052870;28;20112;-65
2023/12/17 05:37:54;;;;;;;36.00;18.67;;;-1.20;99.90;;;;;;5051626;28;20103;-65
2023/12/17 05:40:20;;;;;;;34.97;18.63;;;-1.20;99.90;;;;;;5052303;28;20032;-65
2023/12/17 05:42:46;;;;;;;30.65;16.83;;;-1.20;99.90;;;;;;5051669;28;20107;-65
2023/12/17 05:45:11;;;;;;;32.75;17.23;;;-1.30;99.90;;;;;;5052944;28;20025;-65
2023/12/17 05:47:39;;;;;;;36.67;18.73;;;-1.30;99.90;;;;;;5051916;28;20032;-65
2023/12/17 05:50:05;;;;;;;36.53;18.83;;;-1.30;99.90;;;;;;5051430;28;20033;-65
2023/12/17 05:52:32;;;;;;;32.85;18.00;;;-1.40;99.90;;;;;;5051708;28;20137;-65
2023/12/17 05:54:57;;;;;;;35.80;18.20;;;-1.40;99.90;;;;;;5051697;28;20469;-65
2023/12/17 05:57:23;;;;;;;35.70;18.45;;;-1.40;99.90;;;;;;5052055;28;20089;-65
2023/12/17 05:59:49;;;;;;;34.45;17.88;;;-1.30;99.90;;;;;;5050838;28;20033;-65
2023/12/17 06:02:14;;;;;;;30.63;16.23;;;-1.30;99.90;;;;;;5050210;28;20378;-65
2023/12/17 06:04:40;;;;;;;33.70;18.30;;;-1.40;99.90;;;;;;5051786;28;20021;-65
2023/12/17 06:07:06;;;;;;;34.22;17.75;;;-1.40;99.90;;;;;;5052282;28;20028;-65
2023/12/17 06:09:32;;;;;;;33.67;18.65;;;-1.40;99.90;;;;;;5051849;28;20033;-64
2023/12/17 06:11:57;;;;;;;33.05;18.63;;;-1.40;99.90;;;;;;5050844;28;20087;-65
2023/12/17 06:14:24;;;;;;;35.63;19.08;;;-1.50;99.90;;;;;;5052173;28;20079;-64
2023/12/17 06:16:49;;;;;;;39.25;21.17;;;-1.50;99.90;;;;;;5050826;28;20112;-65
2023/12/17 06:19:15;;;;;;;37.97;20.90;;;-1.50;99.90;;;;;;5046205;28;20113;-64
2023/12/17 06:21:41;;;;;;;37.72;20.98;;;-1.50;99.90;;;;;;5050564;28;20029;-64
2023/12/17 06:24:07;;;;;;;38.28;20.27;;;-1.50;99.90;;;;;;5052210;28;20090;-65
2023/12/17 06:26:36;;;;;;;43.30;21.25;;;-1.50;99.90;;;;;;5043406;28;20021;-65
2023/12/17 06:29:01;;;;;;;39.10;19.55;;;-1.50;99.90;;;;;;5049644;28;20029;-65
2023/12/17 06:31:27;;;;;;;44.58;21.10;;;-1.40;99.90;;;;;;5045357;28;20110;-65
2023/12/17 06:33:55;;;;;;;38.85;19.45;;;-1.40;99.90;;;;;;5050182;28;20032;-66
2023/12/17 06:36:21;;;;;;;38.35;19.38;;;-1.40;99.90;;;;;;5050197;28;20100;-65
2023/12/17 06:38:47;;;;;;;41.97;20.50;;;-1.30;99.90;;;;;;5042864;28;20180;-64
2023/12/17 06:41:13;;;;;;;44.33;20.77;;;-1.20;99.90;;;;;;5039367;28;20036;-65
2023/12/17 06:43:42;;;;;;;40.35;20.33;;;-1.20;99.90;;;;;;5052431;28;20389;-65
2023/12/17 06:46:14;;;;;;;47.55;19.80;;;-1.20;99.90;;;;;;5048513;28;20025;-65
2023/12/17 06:48:41;;;;;;;37.88;19.30;;;-1.10;99.90;;;;;;5050456;28;20095;-66
2023/12/17 06:51:07;;;;;;;39.22;20.58;;;-1.10;99.90;;;;;;5049864;28;20056;-65
2023/12/17 06:53:32;;;;;;;43.88;20.38;;;-1.20;99.90;;;;;;5050264;28;20110;-65
2023/12/17 06:55:58;;;;;;;40.75;20.30;;;-1.10;99.90;;;;;;5047441;28;20047;-65
2023/12/17 06:58:23;;;;;;;37.45;20.52;;;-1.20;99.90;;;;;;5049977;28;20533;-65
2023/12/17 07:00:49;;;;;;;42.83;20.95;;;-1.10;99.90;;;;;;5049722;28;20032;-65
2023/12/17 07:03:18;;;;;;;43.00;20.95;;;-1.00;99.90;;;;;;5049397;28;20037;-65
2023/12/17 07:05:45;;;;;;;35.95;19.63;;;-1.00;99.90;;;;;;5048800;28;20074;-65
2023/12/17 07:08:10;;;;;;;38.78;20.13;;;-1.00;99.90;;;;;;5049618;28;20031;-65
2023/12/17 07:10:36;;;;;;;35.55;18.30;;;-1.00;99.90;;;;;;5049594;28;20429;-65
2023/12/17 07:13:03;;;;;;;38.03;19.45;;;-0.90;99.90;;;;;;5048795;28;20032;-65
2023/12/17 07:15:29;;;;;;;39.22;20.40;;;-1.00;99.90;;;;;;5049733;28;20029;-65
2023/12/17 07:17:55;;;;;;;42.50;20.88;;;-1.00;99.90;;;;;;5043143;28;20481;-65
2023/12/17 07:20:20;;;;;;;36.33;19.98;;;-1.00;99.90;;;;;;5048518;28;20104;-65
2023/12/17 07:22:47;;;;;;;38.03;19.83;;;-1.00;99.90;;;;;;5049070;28;20060;-69
2023/12/17 07:25:13;;;;;;;39.17;20.38;;;-1.00;99.90;;;;;;5048327;28;20108;-64
2023/12/17 07:27:39;;;;;;;44.30;21.35;;;-1.00;99.90;;;;;;5048925;28;20529;-64
2023/12/17 07:30:05;;;;;;;42.85;21.45;;;-1.00;99.90;;;;;;5049100;28;20044;-65
2023/12/17 07:32:31;;;;;;;39.45;20.50;;;-0.90;99.90;;;;;;5048977;28;20017;-63
2023/12/17 07:34:56;;;;;;;38.95;20.08;;;-0.90;99.90;;;;;;5050309;28;20036;-64
2023/12/17 07:37:22;;;;;;;41.20;20.25;;;-0.90;99.90;;;;;;5049085;28;20040;-62
2023/12/17 07:39:48;;;;;;;37.58;20.27;;;-0.80;99.90;;;;;;5046733;28;20087;-63
2023/12/17 07:42:14;;;;;;;46.05;20.75;;;-0.80;99.90;;;;;;5048527;28;20118;-63
2023/12/17 07:44:39;;;;;;;35.28;19.35;;;-0.80;99.90;;;;;;5047275;28;20086;-63
2023/12/17 07:47:05;;;;;;;35.25;18.67;;;-0.80;99.90;;;;;;5033615;28;20095;-63
2023/12/17 07:49:31;;;;;;;34.00;18.52;;;-0.80;99.90;;;;;;5050067;28;20017;-63
2023/12/17 07:51:57;;;;;;;35.17;19.20;;;-0.80;99.90;;;;;;5047369;28;20104;-67
2023/12/17 07:54:22;;;;;;;36.05;19.50;;;-0.80;99.90;;;;;;5048665;28;20385;-64
2023/12/17 07:56:48;;;;;;;39.95;20.83;;;-0.90;99.90;;;;;;5058403;28;20148;-62
2023/12/17 07:59:13;;;;;;;42.08;22.08;;;-0.90;99.90;;;;;;5049006;28;20104;-62
2023/12/17 08:01:39;;;;;;;39.25;21.75;;;-0.80;99.90;;;;;;5048577;28;20032;-64
2023/12/17 08:04:05;;;;;;;39.03;21.35;;;-0.90;99.90;;;;;;5039128;28;20047;-63
2023/12/17 08:06:30;;;;;;;53.00;25.58;;;-0.80;99.90;;;;;;5031334;28;20021;-62
2023/12/17 08:08:56;;;;;;;41.75;22.60;;;-0.80;99.90;;;;;;5047985;28;20025;-62
2023/12/17 08:11:22;;;;;;;42.60;23.42;;;-0.70;99.90;;;;;;5048455;28;20041;-63
2023/12/17 08:13:48;;;;;;;37.55;21.42;;;-0.70;99.90;;;;;;5052941;28;20037;-63
2023/12/17 08:16:14;;;;;;;42.40;22.40;;;-0.70;99.90;;;;;;5064057;28;20045;-62
2023/12/17 08:18:39;;;;;;;47.50;24.20;;;-0.70;99.90;;;;;;5049520;28;20021;-63
2023/12/17 08:21:05;;;;;;;47.95;23.95;;;-0.70;99.90;;;;;;5048469;28;20454;-63
2023/12/17 08:23:31;;;;;;;51.10;24.33;;;-0.60;99.90;;;;;;5048601;28;20062;-63
2023/12/17 08:25:57;;;;;;;47.97;26.60;;;-0.60;99.90;;;;;;5054844;28;20699;-63
2023/12/17 08:28:23;;;;;;;41.80;23.20;;;-0.50;99.90;;;;;;5049261;28;20036;-63
2023/12/17 08:30:49;;;;;;;47.58;25.33;;;-0.50;99.90;;;;;;5037903;28;20052;-63
2023/12/17 08:33:15;;;;;;;42.92;24.10;;;-0.40;99.90;;;;;;5027391;28;20108;-63
2023/12/17 08:35:43;;;;;;;41.50;23.30;;;-0.40;99.90;;;;;;5028653;28;20737;-64
2023/12/17 08:38:08;;;;;;;45.63;23.83;;;-0.40;99.90;;;;;;5026748;28;20418;-66
2023/12/17 08:40:39;;;;;;;48.22;25.60;;;-0.30;99.90;;;;;;5027504;28;20087;-65
2023/12/17 08:43:06;;;;;;;37.97;23.92;;;-0.30;99.90;;;;;;5024574;28;20030;-67
2023/12/17 08:45:35;;;;;;;42.22;24.13;;;-0.20;99.90;;;;;;5029268;28;20021;-63
2023/12/17 08:48:01;;;;;;;40.33;23.30;;;-0.20;99.90;;;;;;5025091;28;20026;-64
2023/12/17 08:50:27;;;;;;;45.78;24.85;;;-0.10;99.90;;;;;;5011492;28;20091;-63
2023/12/17 08:52:52;;;;;;;46.10;26.45;;;0.00;99.90;;;;;;5027768;28;20033;-63
2023/12/17 08:55:19;;;;;;;48.70;27.02;;;0.00;99.90;;;;;;5025174;28;20030;-63
2023/12/17 08:57:48;;;;;;;55.03;30.52;;;0.10;99.90;;;;;;5027492;28;20034;-63
2023/12/17 09:00:16;;;;;;;49.33;27.40;;;0.20;99.90;;;;;;5028603;28;20049;-64
2023/12/17 09:02:42;;;;;;;54.75;28.90;;;0.30;99.90;;;;;;5031537;28;20086;-64
2023/12/17 09:05:08;;;;;;;50.40;27.63;;;0.40;99.90;;;;;;5031936;28;20025;-63
2023/12/17 09:07:34;;;;;;;47.22;26.92;;;0.50;99.90;;;;;;5032460;28;20261;-64
2023/12/17 09:10:00;;;;;;;47.47;26.70;;;0.60;99.90;;;;;;5030887;28;20740;-63
2023/12/17 09:12:26;;;;;;;45.85;26.98;;;0.70;99.90;;;;;;5032909;28;20044;-63
2023/12/17 09:14:51;;;;;;;53.38;29.20;;;0.70;99.90;;;;;;5032001;28;20030;-64
2023/12/17 09:17:17;;;;;;;50.10;28.88;;;0.80;99.90;;;;;;5031411;28;20093;-64
2023/12/17 09:19:43;;;;;;;48.72;28.42;;;0.90;99.90;;;;;;5024987;28;20033;-63
2023/12/17 09:22:08;;;;;;;43.42;27.92;;;1.00;99.90;;;;;;5030103;28;20540;-65
2023/12/17 09:24:34;;;;;;;43.25;25.88;;;1.10;99.90;;;;;;5031817;28;20034;-63
2023/12/17 09:27:00;;;;;;;37.28;24.67;;;1.10;99.90;;;;;;5030070;28;20048;-65
2023/12/17 09:29:26;;;;;;;37.67;23.95;;;1.20;99.90;;;;;;5031835;28;20025;-63
2023/12/17 09:31:52;;;;;;;41.53;27.05;;;1.20;99.90;;;;;;5029500;28;20066;-64
2023/12/17 09:34:17;;;;;;;42.78;26.20;;;1.30;99.90;;;;;;5031354;28;20037;-64
2023/12/17 09:36:43;;;;;;;44.67;26.75;;;1.30;99.90;;;;;;5031102;28;20094;-63
2023/12/17 09:39:09;;;;;;;44.13;27.38;;;1.40;99.90;;;;;;5013417;28;20021;-62
2023/12/17 09:41:35;;;;;;;42.70;27.08;;;1.50;99.90;;;;;;5031081;28;20116;-63
2023/12/17 09:44:03;;;;;;;41.00;26.90;;;1.60;99.90;;;;;;5027974;28;20037;-64
2023/12/17 09:46:29;;;;;;;41.85;25.88;;;1.70;99.90;;;;;;5030758;28;20463;-63
2023/12/17 09:48:54;;;;;;;37.00;23.27;;;1.80;99.90;;;;;;5031277;28;20028;-63
2023/12/17 09:51:23;;;;;;;28.88;17.27;;;1.90;99.90;;;;;;5031164;28;20678;-63
2023/12/17 09:53:48;;;;;;;28.30;16.67;;;1.90;99.90;;;;;;5028602;28;20033;-63
2023/12/17 09:56:14;;;;;;;25.33;16.35;;;2.00;99.90;;;;;;5029987;28;20029;-64
2023/12/17 09:58:40;;;;;;;24.92;15.63;;;2.10;99.90;;;;;;5031331;28;20425;-64
2023/12/17 10:01:06;;;;;;;25.95;17.88;;;2.20;99.90;;;;;;5030985;28;20071;-63
2023/12/17 10:03:32;;;;;;;28.40;18.33;;;2.30;99.90;;;;;;5030518;28;20046;-62
2023/12/17 10:05:57;;;;;;;24.02;16.77;;;2.40;99.90;;;;;;5030458;28;20029;-64
2023/12/17 10:08:23;;;;;;;27.85;17.25;;;2.50;99.90;;;;;;5027298;28;20025;-64
2023/12/17 10:10:49;;;;;;;25.15;16.58;;;2.60;99.90;;;;;;5031724;28;20087;-63
2023/12/17 10:13:20;;;;;;;22.00;14.85;;;2.70;99.90;;;;;;5028916;28;20025;-63
2023/12/17 10:15:53;;;;;;;19.55;14.10;;;2.80;99.90;;;;;;5029477;28;20091;-63
2023/12/17 10:18:19;;;;;;;21.35;15.40;;;2.90;99.90;;;;;;5023016;28;20463;-64
2023/12/17 10:20:46;;;;;;;21.55;13.63;;;3.00;99.90;;;;;;5030371;28;20022;-64
2023/12/17 10:23:12;;;;;;;21.83;14.05;;;3.00;99.90;;;;;;5010529;28;20045;-70
2023/12/17 10:25:42;;;;;;;20.13;13.23;;;3.10;99.90;;;;;;5030930;28;20032;-70
2023/12/17 10:28:12;;;;;;;20.60;13.88;;;3.20;99.90;;;;;;5030221;28;20486;-69
2023/12/17 10:30:41;;;;;;;20.70;14.48;;;3.20;99.90;;;;;;5030532;28;20053;-68
2023/12/17 10:33:10;;;;;;;17.83;12.75;;;3.30;99.90;;;;;;5028855;28;20040;-66
2023/12/17 10:35:35;;;;;;;20.13;11.93;;;3.40;99.90;;;;;;5030264;28;20025;-67
2023/12/17 10:38:08;;;;;;;19.10;12.27;;;3.50;99.90;;;;;;5028969;28;20591;-68
2023/12/17 10:40:35;;;;;;;16.52;11.75;;;3.60;99.90;;;;;;5018325;28;20021;-67
2023/12/17 10:43:04;;;;;;;17.80;12.07;;;3.60;99.90;;;;;;5029407;28;20095;-68
2023/12/17 10:45:31;;;;;;;18.95;12.73;;;3.70;99.90;;;;;;5029590;28;20036;-66
2023/12/17 10:47:57;;;;;;;18.42;12.38;;;3.70;99.90;;;;;;5029475;28;20474;-66
2023/12/17 10:50:26;;;;;;;18.15;12.88;;;3.80;99.90;;;;;;5027952;28;20040;-66
2023/12/17 10:52:53;;;;;;;19.55;13.13;;;3.90;99.90;;;;;;5027801;28;20390;-66
2023/12/17 10:55:20;;;;;;;25.52;14.27;;;4.00;99.90;;;;;;5031018;28;20029;-67
2023/12/17 10:57:48;;;;;;;27.23;16.92;;;4.10;99.90;;;;;;5028064;28;20466;-67
2023/12/17 11:00:18;;;;;;;19.98;13.60;;;4.20;99.90;;;;;;5030064;28;20076;-68
2023/12/17 11:02:45;;;;;;;19.00;12.60;;;4.30;99.90;;;;;;5028212;28;20069;-68
2023/12/17 11:05:13;;;;;;;19.45;12.88;;;4.40;99.90;;;;;;5008742;28;20312;-68
2023/12/17 11:07:38;;;;;;;17.88;12.77;;;4.40;99.90;;;;;;5022273;28;20025;-69
2023/12/17 11:10:10;;;;;;;18.58;12.27;;;4.50;99.90;;;;;;5026283;28;20474;-67
2023/12/17 11:12:36;;;;;;;19.20;12.82;;;4.50;99.90;;;;;;5027851;28;20033;-67
2023/12/17 11:15:02;;;;;;;20.70;13.25;;;4.60;99.90;;;;;;5025774;28;20368;-68
2023/12/17 11:17:28;;;;;;;20.08;11.93;;;4.70;99.90;;;;;;5021211;28;20121;-66
2023/12/17 11:19:53;;;;;;;16.85;10.80;;;4.90;99.90;;;;;;5027098;28;20104;-68
2023/12/17 11:22:24;;;;;;;14.57;10.30;;;4.90;99.90;;;;;;5027440;28;20775;-68
2023/12/17 11:24:52;;;;;;;17.35;12.35;;;5.00;99.90;;;;;;5023389;28;20478;-68
2023/12/17 11:27:21;;;;;;;16.85;11.32;;;5.00;99.90;;;;;;5024043;28;20099;-69
2023/12/17 11:29:46;;;;;;;15.88;11.50;;;5.00;99.90;;;;;;5032314;28;20079;-68
2023/12/17 11:32:13;;;;;;;17.23;11.50;;;5.00;99.90;;;;;;5036559;28;20025;-70
2023/12/17 11:34:40;;;;;;;13.18;10.20;;;5.00;99.90;;;;;;5032863;28;20029;-68
2023/12/17 11:37:05;;;;;;;15.25;10.13;;;5.00;99.90;;;;;;5021716;28;20018;-67
2023/12/17 11:39:32;;;;;;;15.23;10.32;;;5.00;99.90;;;;;;5008029;28;20427;-68
2023/12/17 11:41:58;;;;;;;15.05;9.63;;;5.10;99.90;;;;;;5028668;28;20109;-68
2023/12/17 11:44:23;;;;;;;15.82;9.63;;;5.20;99.90;;;;;;5028926;28;20168;-68
2023/12/17 11:46:50;;;;;;;14.73;10.57;;;5.20;99.90;;;;;;5021437;28;20025;-69
2023/12/17 11:49:23;;;;;;;14.60;10.77;;;5.20;99.90;;;;;;5022257;28;20028;-67
2023/12/17 11:51:50;;;;;;;16.38;10.65;;;5.30;99.90;;;;;;5025973;28;20030;-68
2023/12/17 11:54:23;;;;;;;13.05;9.45;;;5.30;99.90;;;;;;5011668;28;20029;-68
2023/12/17 11:56:49;;;;;;;12.48;9.43;;;5.30;99.90;;;;;;5026426;28;20025;-67
2023/12/17 11:59:15;;;;;;;14.30;10.63;;;5.30;99.90;;;;;;5029650;28;20018;-67
2023/12/17 12:01:42;;;;;;;13.65;9.95;;;5.40;99.90;;;;;;5027358;28;20029;-68
2023/12/17 12:04:08;;;;;;;16.15;10.60;;;5.50;99.90;;;;;;5027285;28;20030;-68
2023/12/17 12:06:34;;;;;;;13.73;9.63;;;5.50;99.90;;;;;;5028361;28;20032;-69
2023/12/17 12:09:00;;;;;;;14.75;10.07;;;5.50;99.90;;;;;;5022900;28;20014;-68
2023/12/17 12:11:34;;;;;;;13.10;9.77;;;5.60;99.90;;;;;;5020433;28;20108;-66
2023/12/17 12:14:00;;;;;;;14.68;9.57;;;5.60;99.90;;;;;;5022997;28;20637;-69
2023/12/17 12:16:27;;;;;;;14.55;10.00;;;5.70;99.90;;;;;;5022081;28;20120;-69
2023/12/17 12:19:03;;;;;;;14.88;10.10;;;5.70;99.90;;;;;;5025208;28;20111;-68
2023/12/17 12:21:29;;;;;;;16.77;11.02;;;5.80;99.90;;;;;;5002875;28;20034;-69
2023/12/17 12:23:56;;;;;;;13.60;10.00;;;5.80;99.90;;;;;;5022696;28;20049;-66
2023/12/17 12:26:23;;;;;;;17.70;10.23;;;5.90;99.90;;;;;;5021588;28;20041;-68